Time;durP1;ratioP1;P1;durP2;ratioP2;P2;SDS_P1;SDS_P2;PMS_P1;PMS_P2;Temp;Humidity;BMP_temperature;BMP_pressure;BME280_temperature;BME280_humidity;BME280_pressure;Samples;Min_cycle;Max_cycle;Signal;HPM_P1;HPM_P2
2021/09/23 00:00:05;;;;;;;7.70;6.80;;;15.80;99.90;;;;;;4926038;29;20056;-87
2021/09/23 00:05:23;;;;;;;9.82;7.85;;;15.70;99.90;;;;;;4921597;29;20421;-89
2021/09/23 00:07:51;;;;;;;8.30;7.18;;;15.60;99.90;;;;;;4905709;29;20020;-88
2021/09/23 00:10:22;;;;;;;13.60;6.97;;;15.70;99.90;;;;;;4896322;29;20063;-88
2021/09/23 00:12:49;;;;;;;9.43;7.18;;;15.60;99.90;;;;;;4903509;29;20032;-88
2021/09/23 00:15:16;;;;;;;8.77;7.28;;;15.60;99.90;;;;;;4903338;29;20482;-88
2021/09/23 00:17:47;;;;;;;8.48;7.20;;;15.60;99.90;;;;;;4931778;29;20020;-88
2021/09/23 00:20:18;;;;;;;9.50;7.32;;;15.50;99.90;;;;;;4914465;29;20501;-87
2021/09/23 00:22:44;;;;;;;12.45;7.57;;;15.50;99.90;;;;;;4928929;29;20052;-88
2021/09/23 00:25:11;;;;;;;9.50;7.55;;;15.50;99.90;;;;;;4914523;29;20044;-88
2021/09/23 00:27:37;;;;;;;9.07;6.65;;;15.40;99.90;;;;;;4911951;29;20080;-89
2021/09/23 00:30:04;;;;;;;9.88;7.47;;;15.40;99.90;;;;;;4905055;29;20103;-88
2021/09/23 00:32:30;;;;;;;9.57;7.47;;;15.40;99.90;;;;;;4903705;29;20025;-88
2021/09/23 00:34:55;;;;;;;12.25;7.53;;;15.40;99.90;;;;;;4914213;29;20421;-88
2021/09/23 00:37:21;;;;;;;10.98;7.45;;;15.40;99.90;;;;;;4915297;29;20017;-88
2021/09/23 00:39:47;;;;;;;9.50;7.22;;;15.30;99.90;;;;;;4927850;29;20024;-88
2021/09/23 00:42:12;;;;;;;7.95;7.13;;;15.30;99.90;;;;;;4913952;29;20046;-88
2021/09/23 00:44:39;;;;;;;11.48;7.70;;;15.30;99.90;;;;;;4915424;29;20047;-89
2021/09/23 00:47:05;;;;;;;10.43;7.22;;;15.30;99.90;;;;;;4914094;29;20021;-88
2021/09/23 00:49:31;;;;;;;8.40;7.50;;;15.30;99.90;;;;;;4913922;29;20032;-88
2021/09/23 00:51:57;;;;;;;13.23;7.72;;;15.30;99.90;;;;;;4909679;29;20028;-88
2021/09/23 00:54:22;;;;;;;11.27;7.60;;;15.30;99.90;;;;;;4907731;29;20540;-89
2021/09/23 00:56:48;;;;;;;11.63;7.65;;;15.30;99.90;;;;;;4909671;29;20032;-88
2021/09/23 00:59:14;;;;;;;9.18;6.95;;;15.20;99.90;;;;;;4895059;29;20521;-89
2021/09/23 01:01:45;;;;;;;11.07;6.95;;;15.20;99.90;;;;;;4896698;29;20088;-89
2021/09/23 01:04:13;;;;;;;11.18;7.22;;;15.10;99.90;;;;;;4900428;29;20044;-89
2021/09/23 01:06:38;;;;;;;10.80;7.38;;;15.10;99.90;;;;;;4912883;29;20032;-89
2021/09/23 01:09:04;;;;;;;11.18;8.00;;;15.00;99.90;;;;;;4910770;29;20087;-89
2021/09/23 01:11:30;;;;;;;8.02;7.22;;;15.00;99.90;;;;;;4902192;29;20023;-88
2021/09/23 01:13:56;;;;;;;10.65;7.63;;;15.00;99.90;;;;;;4910360;29;20035;-89
2021/09/23 01:16:22;;;;;;;10.75;7.55;;;14.90;99.90;;;;;;4912808;29;20379;-88
2021/09/23 01:18:47;;;;;;;11.68;8.25;;;14.90;99.90;;;;;;4908010;29;20039;-89
2021/09/23 01:21:13;;;;;;;11.52;7.63;;;14.90;99.90;;;;;;4913354;29;20474;-88
2021/09/23 01:23:42;;;;;;;8.18;6.97;;;14.80;99.90;;;;;;4909510;29;20458;-87
2021/09/23 01:26:08;;;;;;;11.93;7.95;;;14.80;99.90;;;;;;4899017;29;20084;-89
2021/09/23 01:28:34;;;;;;;10.82;7.28;;;14.80;99.90;;;;;;4913474;29;20020;-88
2021/09/23 01:31:01;;;;;;;13.77;8.35;;;14.70;99.90;;;;;;4913534;29;20108;-88
2021/09/23 01:33:27;;;;;;;8.60;7.68;;;14.70;99.90;;;;;;4928762;29;20558;-88
2021/09/23 01:35:53;;;;;;;11.27;7.95;;;14.80;99.90;;;;;;4913997;29;20099;-88
2021/09/23 01:38:18;;;;;;;10.70;8.18;;;14.70;99.90;;;;;;4913583;29;20492;-89
2021/09/23 01:40:44;;;;;;;11.35;7.95;;;14.70;99.90;;;;;;4899768;29;20059;-88
2021/09/23 01:43:10;;;;;;;10.38;8.02;;;14.60;99.90;;;;;;4907194;29;20040;-88
2021/09/23 01:45:36;;;;;;;11.40;8.32;;;14.60;99.90;;;;;;4896204;29;20048;-88
2021/09/23 01:48:03;;;;;;;10.63;8.25;;;14.50;99.90;;;;;;4901971;29;20017;-88
2021/09/23 01:50:28;;;;;;;10.32;8.73;;;14.50;99.90;;;;;;4907372;29;20103;-88
2021/09/23 01:52:54;;;;;;;10.02;8.15;;;14.40;99.90;;;;;;4915276;29;20540;-89
2021/09/23 01:55:20;;;;;;;11.52;8.52;;;14.40;99.90;;;;;;4917300;29;20168;-88
2021/09/23 01:57:46;;;;;;;10.77;8.70;;;14.40;99.90;;;;;;4903601;29;20028;-88
2021/09/23 02:00:12;;;;;;;12.90;8.73;;;14.40;99.90;;;;;;4917122;29;20585;-88
2021/09/23 02:02:37;;;;;;;11.07;9.10;;;14.40;99.90;;;;;;4917146;29;20024;-88
2021/09/23 02:05:04;;;;;;;10.77;8.30;;;14.30;99.90;;;;;;4916657;29;20040;-88
2021/09/23 02:07:29;;;;;;;11.68;9.52;;;14.30;99.90;;;;;;4918724;29;20030;-88
2021/09/23 02:09:55;;;;;;;12.07;8.55;;;14.20;99.90;;;;;;4914665;29;20035;-88
2021/09/23 02:12:22;;;;;;;11.68;8.85;;;14.20;99.90;;;;;;4913813;29;20025;-88
2021/09/23 02:14:48;;;;;;;11.85;9.38;;;14.20;99.90;;;;;;4900874;29;20116;-88
2021/09/23 02:17:14;;;;;;;10.38;8.50;;;14.10;99.90;;;;;;4914068;29;20024;-89
2021/09/23 02:19:40;;;;;;;10.75;8.85;;;14.10;99.90;;;;;;4904935;29;20579;-88
2021/09/23 02:22:06;;;;;;;14.07;8.85;;;14.10;99.90;;;;;;4927785;29;20123;-88
2021/09/23 02:24:32;;;;;;;10.90;8.80;;;14.10;99.90;;;;;;4928021;29;20040;-88
2021/09/23 02:26:57;;;;;;;14.13;9.27;;;14.10;99.90;;;;;;4913110;29;20035;-88
2021/09/23 02:29:23;;;;;;;12.25;9.63;;;14.10;99.90;;;;;;4916286;29;20035;-88
2021/09/23 02:31:49;;;;;;;9.82;8.82;;;14.10;99.90;;;;;;4916082;29;20040;-88
2021/09/23 02:34:15;;;;;;;10.68;8.88;;;14.00;99.90;;;;;;4916406;29;20536;-88
2021/09/23 02:36:40;;;;;;;11.57;9.23;;;14.00;99.90;;;;;;4916521;29;20049;-89
2021/09/23 02:39:06;;;;;;;9.90;8.90;;;14.00;99.90;;;;;;4915596;29;20028;-88
2021/09/23 02:41:32;;;;;;;11.75;8.90;;;13.90;99.90;;;;;;4915187;29;20035;-88
2021/09/23 02:43:59;;;;;;;9.88;8.63;;;14.00;99.90;;;;;;4916060;29;20044;-88
2021/09/23 02:46:25;;;;;;;11.23;9.60;;;14.00;99.90;;;;;;4912270;29;20425;-87
2021/09/23 02:48:51;;;;;;;13.13;8.50;;;14.00;99.90;;;;;;4897714;29;20043;-88
2021/09/23 02:51:17;;;;;;;10.05;9.02;;;14.00;99.90;;;;;;4915896;29;20032;-88
2021/09/23 02:53:43;;;;;;;11.85;9.45;;;14.10;99.90;;;;;;4916053;29;20033;-88
2021/09/23 02:56:10;;;;;;;17.23;9.38;;;14.00;99.90;;;;;;4916056;29;20027;-89
2021/09/23 02:58:36;;;;;;;12.52;9.85;;;14.00;99.90;;;;;;4913154;29;20107;-88
2021/09/23 03:01:01;;;;;;;10.43;9.25;;;14.00;99.90;;;;;;4913409;29;20024;-88
2021/09/23 03:03:27;;;;;;;12.80;9.32;;;14.00;99.90;;;;;;4910980;29;20032;-88
2021/09/23 03:05:53;;;;;;;10.18;9.00;;;14.00;99.90;;;;;;4900088;29;20051;-89
2021/09/23 03:08:20;;;;;;;11.10;9.93;;;14.00;99.90;;;;;;4909739;29;20039;-88
2021/09/23 03:10:48;;;;;;;10.82;9.68;;;14.00;99.90;;;;;;4927239;29;20040;-88
2021/09/23 03:13:14;;;;;;;11.95;9.48;;;13.90;99.90;;;;;;4909428;29;20034;-89
2021/09/23 03:15:40;;;;;;;12.93;9.27;;;13.90;99.90;;;;;;4911245;29;20021;-88
2021/09/23 03:18:05;;;;;;;10.77;9.30;;;13.90;99.90;;;;;;4896829;29;20447;-88
2021/09/23 03:20:31;;;;;;;12.38;9.98;;;13.90;99.90;;;;;;4926670;29;20020;-89
2021/09/23 03:22:57;;;;;;;11.15;9.52;;;14.00;99.90;;;;;;4905154;29;20079;-89
2021/09/23 03:25:23;;;;;;;12.25;9.65;;;13.90;99.90;;;;;;4911922;29;20123;-89
2021/09/23 03:27:50;;;;;;;11.13;9.80;;;13.90;99.90;;;;;;4911002;29;20115;-88
2021/09/23 03:30:16;;;;;;;12.05;9.98;;;13.90;99.90;;;;;;4909059;29;20036;-88
2021/09/23 03:32:42;;;;;;;10.20;9.20;;;13.90;99.90;;;;;;4915108;29;20075;-89
2021/09/23 03:35:08;;;;;;;13.88;10.13;;;13.90;99.90;;;;;;4905052;29;20107;-88
2021/09/23 03:37:34;;;;;;;13.77;10.20;;;13.90;99.90;;;;;;4910603;29;20017;-89
2021/09/23 03:40:01;;;;;;;12.18;9.50;;;13.90;99.90;;;;;;4925900;29;20063;-89
2021/09/23 03:42:26;;;;;;;14.98;10.00;;;13.90;99.90;;;;;;4904153;29;20492;-88
2021/09/23 03:44:52;;;;;;;13.57;10.23;;;13.90;99.90;;;;;;4910194;29;20033;-88
2021/09/23 03:47:18;;;;;;;11.18;9.65;;;13.90;99.90;;;;;;4907974;29;20055;-88
2021/09/23 03:49:43;;;;;;;12.10;10.73;;;13.80;99.90;;;;;;4939322;29;20024;-88
2021/09/23 03:52:09;;;;;;;12.73;9.88;;;13.80;99.90;;;;;;4903298;29;20083;-88
2021/09/23 03:54:35;;;;;;;12.65;10.45;;;13.80;99.90;;;;;;4915238;29;20051;-88
2021/09/23 03:57:00;;;;;;;13.50;10.98;;;13.80;99.90;;;;;;4914444;29;20623;-88
2021/09/23 03:59:26;;;;;;;15.10;11.00;;;13.80;99.90;;;;;;4903803;29;20032;-88
2021/09/23 04:01:52;;;;;;;16.65;10.80;;;13.80;99.90;;;;;;4895607;29;20032;-88
2021/09/23 04:04:20;;;;;;;12.98;10.75;;;13.80;99.90;;;;;;4896862;29;20037;-88
2021/09/23 04:06:45;;;;;;;13.93;11.10;;;13.70;99.90;;;;;;4897036;29;20037;-87
2021/09/23 04:09:12;;;;;;;12.95;11.00;;;13.60;99.90;;;;;;4895739;29;20020;-88
2021/09/23 04:11:39;;;;;;;15.05;11.80;;;13.60;99.90;;;;;;4910827;29;20032;-88
2021/09/23 04:14:06;;;;;;;14.15;11.85;;;13.60;99.90;;;;;;4909656;29;20028;-88
2021/09/23 04:16:33;;;;;;;17.23;11.93;;;13.60;99.90;;;;;;4895566;29;20530;-87
2021/09/23 04:18:59;;;;;;;16.75;11.52;;;13.60;99.90;;;;;;4897306;29;20063;-88
2021/09/23 04:21:25;;;;;;;15.02;12.13;;;13.60;99.90;;;;;;4913822;29;20044;-88
2021/09/23 04:23:51;;;;;;;14.57;12.10;;;13.60;99.90;;;;;;4910944;29;20016;-88
2021/09/23 04:26:17;;;;;;;17.58;12.15;;;13.60;99.90;;;;;;4899756;29;20490;-88
2021/09/23 04:28:42;;;;;;;18.92;12.43;;;13.50;99.90;;;;;;4908662;29;20044;-88
2021/09/23 04:31:09;;;;;;;17.10;12.43;;;13.50;99.90;;;;;;4901013;29;20047;-88
2021/09/23 04:33:35;;;;;;;13.23;11.77;;;13.50;99.90;;;;;;4911040;29;20017;-87
2021/09/23 04:36:01;;;;;;;12.85;10.75;;;13.60;99.90;;;;;;4912583;29;20409;-88
2021/09/23 04:38:27;;;;;;;13.80;11.10;;;13.60;99.90;;;;;;4912854;29;20478;-88
2021/09/23 04:40:53;;;;;;;14.70;11.32;;;13.60;99.90;;;;;;4928999;29;20035;-88
2021/09/23 04:43:20;;;;;;;15.13;12.38;;;13.60;99.90;;;;;;4902923;29;20016;-88
2021/09/23 04:45:47;;;;;;;16.60;11.85;;;13.50;99.90;;;;;;4900187;29;20040;-88
2021/09/23 04:48:13;;;;;;;15.20;12.18;;;13.50;99.90;;;;;;4925734;29;20494;-87
2021/09/23 04:50:39;;;;;;;16.02;12.05;;;13.50;99.90;;;;;;4905308;29;20037;-87
2021/09/23 04:53:05;;;;;;;14.65;12.32;;;13.50;99.90;;;;;;4910115;29;20413;-88
2021/09/23 04:55:30;;;;;;;16.45;11.63;;;13.50;99.90;;;;;;4902850;29;20103;-89
2021/09/23 04:57:56;;;;;;;15.48;12.13;;;13.50;99.90;;;;;;4908387;29;20034;-88
2021/09/23 05:00:22;;;;;;;26.20;11.93;;;13.50;99.90;;;;;;4907515;29;20028;-88
2021/09/23 05:02:48;;;;;;;14.13;11.40;;;13.50;99.90;;;;;;4913885;29;20153;-88
2021/09/23 05:05:13;;;;;;;15.30;12.10;;;13.50;99.90;;;;;;4913705;29;20046;-88
2021/09/23 05:07:39;;;;;;;14.23;11.98;;;13.50;99.90;;;;;;4899113;29;20048;-88
2021/09/23 05:10:05;;;;;;;15.32;12.05;;;13.50;99.90;;;;;;4913723;29;20509;-90
2021/09/23 05:12:31;;;;;;;15.30;12.30;;;13.40;99.90;;;;;;4914382;29;20028;-93
2021/09/23 05:14:57;;;;;;;18.20;12.45;;;13.40;99.90;;;;;;4916173;29;20059;-92
2021/09/23 05:17:23;;;;;;;14.93;11.52;;;13.40;99.90;;;;;;4927911;29;20032;-92
2021/09/23 05:19:49;;;;;;;16.52;12.57;;;13.50;99.90;;;;;;4926447;29;20426;-93
2021/09/23 05:22:16;;;;;;;13.77;11.95;;;13.40;99.90;;;;;;4913011;29;20044;-93
2021/09/23 05:24:47;;;;;;;16.35;11.48;;;13.40;99.90;;;;;;4929125;29;20035;-92
2021/09/23 05:27:13;;;;;;;15.27;11.68;;;13.40;99.90;;;;;;4930121;29;20107;-93
2021/09/23 05:29:41;;;;;;;15.38;11.80;;;13.40;99.90;;;;;;4917018;29;20032;-93
2021/09/23 05:32:07;;;;;;;16.10;12.35;;;13.40;99.90;;;;;;4917255;29;20039;-92
2021/09/23 05:34:33;;;;;;;15.20;12.45;;;13.40;99.90;;;;;;4933008;29;20031;-92
2021/09/23 05:36:59;;;;;;;17.20;12.10;;;13.30;99.90;;;;;;4930738;29;20021;-93
2021/09/23 05:39:25;;;;;;;15.52;11.85;;;13.30;99.90;;;;;;4932626;29;20488;-93
2021/09/23 05:41:51;;;;;;;14.75;12.35;;;13.30;99.90;;;;;;4932689;29;20020;-92
2021/09/23 05:44:23;;;;;;;16.33;12.32;;;13.30;99.90;;;;;;4930117;29;20032;-93
2021/09/23 05:46:50;;;;;;;16.50;11.68;;;13.20;99.90;;;;;;4935531;29;20028;-93
2021/09/23 05:49:15;;;;;;;15.93;12.52;;;13.20;99.90;;;;;;4944071;28;20058;-93
2021/09/23 05:51:41;;;;;;;16.38;12.02;;;13.20;99.90;;;;;;4943636;29;20072;-93
2021/09/23 05:54:07;;;;;;;20.10;13.13;;;13.20;99.90;;;;;;4919015;29;20407;-93
2021/09/23 05:56:33;;;;;;;14.52;12.02;;;13.20;99.90;;;;;;4912228;29;20060;-94
2021/09/23 05:58:58;;;;;;;18.65;12.27;;;13.20;99.90;;;;;;4916497;29;20028;-93
2021/09/23 06:01:24;;;;;;;15.38;12.85;;;13.20;99.90;;;;;;4913277;29;20032;-93
2021/09/23 06:03:50;;;;;;;16.48;12.82;;;13.20;99.90;;;;;;4926368;29;20029;-93
2021/09/23 06:06:16;;;;;;;16.88;12.02;;;13.20;99.90;;;;;;4908540;29;20052;-93
2021/09/23 06:09:01;;;;;;;17.30;12.10;;;13.20;99.90;;;;;;4916484;29;20048;-96
2021/09/23 06:11:39;;;;;;;18.70;12.95;;;13.20;99.90;;;;;;4916985;29;20041;-96
2021/09/23 06:14:28;;;;;;;16.88;12.38;;;13.20;99.90;;;;;;4912621;29;20028;-95
2021/09/23 06:17:32;;;;;;;18.30;12.00;;;13.20;99.90;;;;;;4895842;29;20068;-95
2021/09/23 06:20:18;;;;;;;19.23;13.18;;;13.20;99.90;;;;;;4933358;29;20028;-94
2021/09/23 06:22:54;;;;;;;14.23;12.63;;;13.30;99.90;;;;;;4902235;29;20284;-94
2021/09/23 06:26:09;;;;;;;19.33;13.10;;;13.30;99.90;;;;;;4899196;29;20048;-96
2021/09/23 06:28:43;;;;;;;18.27;13.05;;;13.40;99.90;;;;;;4916173;29;20070;-95
2021/09/23 06:34:30;;;;;;;18.20;13.38;;;13.40;99.90;;;;;;4916612;29;20111;-95
2021/09/23 06:37:07;;;;;;;22.58;13.45;;;13.40;99.90;;;;;;4926234;29;20490;-95
2021/09/23 06:40:00;;;;;;;18.23;13.38;;;13.50;99.90;;;;;;4909117;29;20051;-95
2021/09/23 06:42:46;;;;;;;22.40;14.40;;;13.60;99.90;;;;;;4923834;29;20048;-95
2021/09/23 06:46:23;;;;;;;;;;;;;;;;;;;;;
2021/09/23 06:49:23;;;;;;;26.37;19.97;;;13.60;99.90;;;;;;4916354;29;20063;-95
2021/09/23 06:52:05;;;;;;;20.38;14.90;;;13.60;99.90;;;;;;4907190;29;20036;-95
2021/09/23 06:54:59;;;;;;;23.73;16.88;;;13.70;99.90;;;;;;4937274;29;20040;-96
2021/09/23 07:00:34;;;;;;;16.20;13.13;;;13.80;99.90;;;;;;4916702;29;20028;-96
2021/09/23 07:03:00;;;;;;;17.80;13.00;;;13.90;99.90;;;;;;4915507;29;20503;-94
2021/09/23 07:05:48;;;;;;;17.50;13.40;;;14.00;99.90;;;;;;4902204;29;20123;-94
2021/09/23 07:08:27;;;;;;;19.63;13.73;;;14.00;99.90;;;;;;4915726;29;20028;-95
2021/09/23 07:11:31;;;;;;;22.85;12.45;;;14.10;99.90;;;;;;4914385;29;20032;-95
2021/09/23 07:14:12;;;;;;;16.92;12.23;;;14.10;99.90;;;;;;4930985;29;20123;-94
2021/09/23 07:17:03;;;;;;;17.08;12.50;;;14.30;99.90;;;;;;4914461;29;20032;-94
2021/09/23 07:19:31;;;;;;;17.70;13.50;;;14.50;99.90;;;;;;4930750;29;20035;-96
2021/09/23 07:22:29;;;;;;;17.25;12.15;;;14.50;99.90;;;;;;4949518;28;20051;-96
2021/09/23 07:28:18;;;;;;;19.52;12.80;;;14.70;99.90;;;;;;4973721;28;20026;-96
2021/09/23 07:30:48;;;;;;;20.60;13.43;;;14.80;99.90;;;;;;4972894;28;20042;-96
2021/09/23 07:33:39;;;;;;;16.75;13.13;;;14.90;99.90;;;;;;4972483;28;20121;-96
2021/09/23 07:36:38;;;;;;;;;;;;;;;;;;;;;
2021/09/23 07:42:48;;;;;;;14.13;12.50;;;15.10;99.90;;;;;;4962082;28;20034;-96
2021/09/23 07:45:27;;;;;;;20.98;13.55;;;15.10;99.90;;;;;;4987552;28;20043;-96
2021/09/23 07:47:55;;;;;;;16.02;12.65;;;15.10;99.90;;;;;;4955372;28;20015;-96
2021/09/23 07:50:46;;;;;;;15.63;12.40;;;15.20;99.90;;;;;;4955983;28;20030;-94
2021/09/23 07:53:53;;;;;;;15.80;11.63;;;15.20;99.90;;;;;;4988083;28;20038;-96
2021/09/23 07:56:22;;;;;;;16.95;11.68;;;15.40;99.90;;;;;;4956061;28;20090;-95
2021/09/23 07:59:33;;;;;;;15.13;11.45;;;15.40;99.90;;;;;;4956551;29;20070;-94
2021/09/23 08:05:43;;;;;;;15.43;11.55;;;15.60;99.90;;;;;;4963022;28;20145;-95
2021/09/23 08:08:21;;;;;;;;;;;;;;;;;;;;;
2021/09/23 08:11:10;;;;;;;16.27;11.05;;;15.80;99.90;;;;;;4974115;28;20035;-95
2021/09/23 08:14:26;;;;;;;;;;;;;;;;;;;;;
2021/09/23 08:17:09;;;;;;;13.65;10.85;;;15.90;99.90;;;;;;4969732;28;20035;-96
2021/09/23 08:19:58;;;;;;;;;;;;;;;;;;;;;
2021/09/23 08:22:57;;;;;;;12.75;10.13;;;16.20;99.90;;;;;;4972733;28;20519;-95
2021/09/23 08:26:14;;;;;;;;;;;;;;;;;;;;;
2021/09/23 08:29:06;;;;;;;;;;;;;;;;;;;;;
2021/09/23 08:31:45;;;;;;;;;;;;;;;;;;;;;
2021/09/23 08:34:37;;;;;;;14.63;10.27;;;16.70;99.90;;;;;;4958917;28;20027;-95
2021/09/23 08:37:15;;;;;;;14.95;9.68;;;16.80;99.90;;;;;;4941982;28;20054;-96
2021/09/23 08:40:22;;;;;;;14.52;10.75;;;17.00;99.90;;;;;;4973622;28;20471;-96
2021/09/23 08:42:58;;;;;;;11.57;9.95;;;17.10;99.90;;;;;;4943919;28;20235;-95
2021/09/23 08:46:05;;;;;;;13.43;9.85;;;17.20;99.90;;;;;;4973279;28;20122;-95
2021/09/23 08:48:32;;;;;;;14.55;9.30;;;17.40;99.90;;;;;;4972454;28;20380;-95
2021/09/23 08:51:18;;;;;;;11.43;9.02;;;17.40;99.90;;;;;;4951570;29;20080;-95
2021/09/23 08:54:09;;;;;;;;;;;;;;;;;;;;;
2021/09/23 08:57:01;;;;;;;;;;;;;;;;;;;;;
2021/09/23 08:59:43;;;;;;;11.93;7.95;;;17.80;99.90;;;;;;4955438;28;20051;-94
2021/09/23 09:03:03;;;;;;;12.63;8.90;;;17.90;99.90;;;;;;4968016;28;20027;-96
2021/09/23 09:06:07;;;;;;;10.48;8.98;;;18.00;99.90;;;;;;4970171;28;20054;-96
2021/09/23 09:09:25;;;;;;;;;;;;;;;;;;;;;
2021/09/23 09:12:31;;;;;;;10.48;8.27;;;18.30;99.90;;;;;;4952312;28;20041;-94
2021/09/23 09:19:06;;;;;;;10.65;7.88;;;18.30;99.90;;;;;;4960487;28;20086;-94
2021/09/23 09:21:46;;;;;;;11.65;7.47;;;18.50;99.90;;;;;;4985290;28;20403;-94
2021/09/23 09:24:20;;;;;;;9.63;7.10;;;18.60;99.90;;;;;;4985299;28;20089;-96
2021/09/23 09:27:54;;;;;;;;;;;;;;;;;;;;;
2021/09/23 09:31:15;;;;;;;10.30;7.30;;;18.90;99.90;;;;;;4950248;28;20031;-96
2021/09/23 09:33:56;;;;;;;7.72;6.30;;;19.10;99.90;;;;;;4938511;28;20034;-96
2021/09/23 09:36:49;;;;;;;9.82;6.80;;;19.10;99.90;;;;;;4998864;28;20065;-94
2021/09/23 09:39:36;;;;;;;;;;;;;;;;;;;;;
2021/09/23 09:45:22;;;;;;;8.02;5.97;;;19.40;99.90;;;;;;4964202;28;20082;-95
2021/09/23 09:54:39;;;;;;;;;;;;;;;;;;;;;
2021/09/23 09:57:29;;;;;;;;;;;19.70;99.90;;;;;;4958980;28;20035;-94
2021/09/23 10:00:03;;;;;;;7.65;5.47;;;19.80;99.90;;;;;;4954554;28;20286;-96
2021/09/23 10:02:47;;;;;;;;;;;;;;;;;;;;;
2021/09/23 10:09:41;;;;;;;7.72;5.40;;;20.10;99.90;;;;;;4893907;29;20034;-96
2021/09/23 10:12:56;;;;;;;9.35;5.88;;;20.20;99.90;;;;;;4912503;29;20032;-96
2021/09/23 10:25:34;;;;;;;7.38;4.40;;;20.80;99.90;;;;;;4972518;28;20049;-96
2021/09/23 10:28:18;;;;;;;6.20;4.72;;;20.90;99.60;;;;;;4931406;28;20031;-96
2021/09/23 10:34:11;;;;;;;6.68;4.60;;;21.10;99.10;;;;;;4952739;29;20023;-95
2021/09/23 10:40:19;;;;;;;10.85;4.40;;;21.30;98.20;;;;;;4952659;29;20023;-96
2021/09/23 10:42:47;;;;;;;6.15;4.60;;;21.40;97.70;;;;;;4954753;28;20207;-95
2021/09/23 10:45:27;;;;;;;5.40;3.83;;;21.50;97.20;;;;;;4953702;28;20103;-96
2021/09/23 10:48:04;;;;;;;4.68;3.90;;;21.60;97.00;;;;;;4953548;28;20035;-95
2021/09/23 10:50:41;;;;;;;6.38;4.05;;;21.70;97.00;;;;;;4989513;28;20122;-94
2021/09/23 10:53:39;;;;;;;7.40;4.18;;;21.70;96.70;;;;;;4991610;28;20027;-95
2021/09/23 10:56:07;;;;;;;5.38;4.25;;;21.80;96.50;;;;;;4977162;28;20034;-93
2021/09/23 10:58:34;;;;;;;5.68;4.38;;;21.90;96.30;;;;;;4957064;28;20018;-93
2021/09/23 11:01:03;;;;;;;5.63;4.05;;;21.90;95.90;;;;;;4950362;29;20031;-91
2021/09/23 11:03:39;;;;;;;6.38;3.90;;;22.00;96.10;;;;;;4982180;28;20038;-91
2021/09/23 11:06:11;;;;;;;4.80;4.28;;;22.00;95.80;;;;;;4974255;28;20050;-95
2021/09/23 11:08:46;;;;;;;5.78;4.60;;;22.10;95.30;;;;;;4956508;28;20224;-94
2021/09/23 11:11:13;;;;;;;7.47;4.55;;;22.10;95.10;;;;;;4971317;28;20030;-91
2021/09/23 11:13:40;;;;;;;9.05;4.38;;;22.10;94.00;;;;;;4955642;28;20030;-91
2021/09/23 11:16:12;;;;;;;6.07;4.55;;;22.20;94.60;;;;;;4964319;28;20042;-94
2021/09/23 11:18:39;;;;;;;5.28;4.53;;;22.30;95.30;;;;;;4954450;28;20487;-96
2021/09/23 11:21:07;;;;;;;4.95;3.70;;;22.40;94.20;;;;;;4960817;28;20552;-92
2021/09/23 11:23:34;;;;;;;4.75;3.92;;;22.40;93.40;;;;;;4975173;28;20521;-93
2021/09/23 11:26:02;;;;;;;6.25;4.68;;;22.50;93.30;;;;;;4953781;28;20035;-89
2021/09/23 11:28:29;;;;;;;4.05;3.65;;;22.50;93.20;;;;;;4966724;28;20026;-83
2021/09/23 11:30:56;;;;;;;6.03;3.85;;;22.50;93.40;;;;;;4973816;28;20494;-83
2021/09/23 11:33:23;;;;;;;4.97;4.47;;;22.60;93.90;;;;;;4969042;28;20034;-84
2021/09/23 11:35:53;;;;;;;4.40;3.97;;;22.80;94.20;;;;;;4959039;28;20115;-83
2021/09/23 11:38:21;;;;;;;8.27;4.63;;;22.90;93.90;;;;;;4972840;28;20023;-83
2021/09/23 11:40:51;;;;;;;5.82;4.13;;;23.00;92.80;;;;;;4974999;28;20030;-83
2021/09/23 11:43:21;;;;;;;7.53;4.30;;;22.90;92.30;;;;;;4974719;28;20318;-83
2021/09/23 11:45:52;;;;;;;6.55;4.15;;;23.00;91.10;;;;;;4982125;28;20038;-83
2021/09/23 11:48:23;;;;;;;5.13;3.85;;;22.90;90.80;;;;;;4976667;28;20204;-82
2021/09/23 11:50:51;;;;;;;6.18;3.88;;;23.10;91.60;;;;;;4973447;28;20026;-83
2021/09/23 11:53:26;;;;;;;5.20;3.65;;;23.20;91.70;;;;;;4965283;28;20049;-82
2021/09/23 11:56:02;;;;;;;4.65;3.53;;;23.30;92.00;;;;;;4975779;28;20089;-85
2021/09/23 11:58:30;;;;;;;3.88;3.30;;;23.40;89.90;;;;;;4971673;28;20019;-83
2021/09/23 12:00:56;;;;;;;6.65;3.85;;;23.40;88.40;;;;;;4978289;28;20048;-83
2021/09/23 12:03:23;;;;;;;5.50;3.45;;;23.50;89.40;;;;;;4973541;28;20483;-83
2021/09/23 12:05:50;;;;;;;4.40;3.38;;;23.70;86.90;;;;;;4961500;28;20076;-82
2021/09/23 12:08:21;;;;;;;4.22;3.42;;;23.80;89.10;;;;;;4963543;28;20102;-82
2021/09/23 12:11:19;;;;;;;5.22;3.72;;;23.90;87.50;;;;;;4971418;28;20063;-82
2021/09/23 12:13:49;;;;;;;7.30;3.30;;;23.90;86.90;;;;;;4946233;28;20034;-83
2021/09/23 12:16:22;;;;;;;4.63;3.17;;;23.80;87.80;;;;;;4942970;29;20047;-83
2021/09/23 12:18:49;;;;;;;4.75;3.70;;;23.90;87.00;;;;;;4961526;28;20468;-83
2021/09/23 12:21:17;;;;;;;4.78;3.55;;;23.80;84.10;;;;;;4964733;28;20027;-83
2021/09/23 12:23:51;;;;;;;4.18;3.08;;;23.80;84.60;;;;;;4971974;28;20117;-83
2021/09/23 12:26:33;;;;;;;6.35;3.40;;;23.90;86.20;;;;;;4955832;28;20485;-83
2021/09/23 12:29:08;;;;;;;5.75;3.20;;;24.20;85.70;;;;;;4967022;28;20118;-83
2021/09/23 12:31:37;;;;;;;8.10;3.50;;;24.40;84.60;;;;;;4971068;28;20507;-79
2021/09/23 12:34:06;;;;;;;5.82;3.10;;;24.50;84.10;;;;;;4962354;28;20050;-78
2021/09/23 12:36:41;;;;;;;5.60;3.05;;;24.40;81.80;;;;;;4965119;28;20069;-78
2021/09/23 12:39:17;;;;;;;5.25;3.42;;;24.50;83.20;;;;;;4962115;28;20484;-78
2021/09/23 12:42:07;;;;;;;7.95;3.38;;;24.60;82.10;;;;;;4968139;28;20092;-78
2021/09/23 12:44:36;;;;;;;7.75;2.70;;;24.70;80.20;;;;;;4970126;28;20415;-78
2021/09/23 12:47:30;;;;;;;3.40;2.65;;;25.10;76.90;;;;;;4966836;28;20023;-78
2021/09/23 12:49:59;;;;;;;4.65;3.17;;;25.10;77.70;;;;;;4956745;28;20436;-79
2021/09/23 12:52:30;;;;;;;3.90;3.00;;;25.20;75.50;;;;;;4965133;28;20031;-77
2021/09/23 12:55:01;;;;;;;4.93;2.75;;;25.20;75.70;;;;;;4967157;28;20050;-78
2021/09/23 12:57:35;;;;;;;4.88;2.95;;;25.20;75.10;;;;;;4967978;28;20030;-75
2021/09/23 13:00:10;;;;;;;;;;;25.10;75.20;;;;;;4965838;28;20027;-75
2021/09/23 13:02:37;;;;;;;3.55;2.75;;;25.30;75.50;;;;;;4961402;28;19907;-75
2021/09/23 13:05:10;;;;;;;4.53;2.60;;;25.40;75.60;;;;;;4980486;28;20404;-75
2021/09/23 13:07:48;;;;;;;4.53;2.75;;;25.60;73.10;;;;;;4970288;28;20085;-75
2021/09/23 13:10:35;;;;;;;4.30;2.70;;;25.70;72.50;;;;;;4965704;28;20029;-75
2021/09/23 13:13:03;;;;;;;3.70;2.78;;;25.80;70.10;;;;;;4960242;28;20035;-75
2021/09/23 13:15:49;;;;;;;3.20;2.60;;;25.80;69.20;;;;;;4970237;28;20019;-75
2021/09/23 13:18:20;;;;;;;4.30;2.65;;;25.60;70.40;;;;;;4970087;28;20058;-75
2021/09/23 13:20:46;;;;;;;5.22;2.67;;;25.70;72.30;;;;;;4959052;28;20473;-75
2021/09/23 13:23:18;;;;;;;10.00;3.75;;;25.70;71.30;;;;;;4955983;28;20039;-75
2021/09/23 13:25:46;;;;;;;3.15;2.50;;;25.90;70.70;;;;;;4958560;28;20059;-75
2021/09/23 13:28:15;;;;;;;5.80;2.58;;;25.90;68.80;;;;;;4960371;28;20016;-75
2021/09/23 13:30:43;;;;;;;3.58;2.80;;;25.80;68.40;;;;;;4970528;28;20539;-75
2021/09/23 13:33:10;;;;;;;4.97;2.53;;;26.00;71.10;;;;;;4970578;28;20165;-75
2021/09/23 13:35:36;;;;;;;7.03;4.57;;;26.20;69.20;;;;;;4970224;28;20019;-75
2021/09/23 13:38:02;;;;;;;10.00;4.93;;;26.40;75.30;;;;;;4970405;28;20037;-75
2021/09/23 13:40:28;;;;;;;6.93;4.00;;;25.90;78.60;;;;;;4970112;28;20023;-76
2021/09/23 13:42:53;;;;;;;8.93;4.55;;;25.50;78.40;;;;;;4961856;28;20098;-78
2021/09/23 13:45:19;;;;;;;6.20;4.07;;;25.10;79.90;;;;;;4970826;28;20050;-78
2021/09/23 13:47:46;;;;;;;8.43;4.38;;;24.50;80.90;;;;;;4974059;28;20015;-77
2021/09/23 13:50:12;;;;;;;9.40;4.18;;;24.40;82.30;;;;;;4974014;28;20202;-78
2021/09/23 13:52:38;;;;;;;5.88;4.00;;;24.60;81.30;;;;;;4968829;28;20074;-77
2021/09/23 13:55:07;;;;;;;10.02;5.53;;;24.60;81.40;;;;;;4969724;28;20503;-78
2021/09/23 13:57:32;;;;;;;10.75;5.15;;;24.40;84.30;;;;;;4965050;28;20467;-76
2021/09/23 13:59:59;;;;;;;7.47;5.00;;;24.20;86.70;;;;;;4968643;28;20433;-77
2021/09/23 14:02:25;;;;;;;12.45;5.10;;;24.30;85.80;;;;;;4966682;28;20027;-76
2021/09/23 14:04:51;;;;;;;6.18;4.57;;;24.10;87.80;;;;;;4965794;28;20031;-76
2021/09/23 14:07:17;;;;;;;16.23;4.90;;;24.20;87.50;;;;;;4968752;28;20081;-76
2021/09/23 14:09:43;;;;;;;10.93;5.40;;;24.20;88.20;;;;;;4964011;28;20061;-76
2021/09/23 14:12:11;;;;;;;5.45;4.38;;;24.20;88.80;;;;;;4969324;28;20054;-76
2021/09/23 14:14:37;;;;;;;10.73;5.13;;;24.30;86.70;;;;;;4973865;28;20069;-76
2021/09/23 14:17:05;;;;;;;9.27;4.35;;;24.20;88.50;;;;;;4974860;28;20034;-76
2021/09/23 14:19:31;;;;;;;6.13;4.38;;;24.30;87.00;;;;;;4967439;28;20054;-76